createdAt,value
2018-01-08T00:01:54.023Z,2.20
2018-01-08T00:04:55.918Z,2.00
2018-01-08T00:07:57.796Z,2.00
2018-01-08T00:10:59.682Z,2.00
2018-01-08T00:14:01.539Z,2.30
2018-01-08T00:17:03.427Z,2.10
2018-01-08T00:20:05.316Z,2.67
2018-01-08T00:23:07.179Z,2.10
2018-01-08T00:26:09.055Z,1.90
2018-01-08T00:29:10.919Z,2.07
2018-01-08T00:32:12.825Z,2.00
2018-01-08T00:35:14.704Z,2.03
2018-01-08T00:38:16.591Z,2.10
2018-01-08T00:41:18.439Z,2.00
2018-01-08T00:44:20.410Z,2.13
2018-01-08T00:47:22.295Z,2.20
2018-01-08T00:50:24.154Z,2.03
2018-01-08T00:53:27.631Z,2.03
2018-01-08T00:56:29.503Z,2.03
2018-01-08T00:59:31.392Z,2.30
2018-01-08T01:02:33.255Z,2.23
2018-01-08T01:05:35.134Z,2.30
2018-01-08T01:08:37.024Z,2.23
2018-01-08T01:11:38.891Z,2.20
2018-01-08T01:14:40.764Z,2.23
2018-01-08T01:17:42.655Z,2.40
2018-01-08T01:20:44.555Z,2.20
2018-01-08T01:23:46.439Z,2.30
2018-01-08T01:26:48.324Z,2.17
2018-01-08T01:29:50.242Z,2.40
2018-01-08T01:32:52.116Z,2.40
2018-01-08T01:35:54.002Z,2.43
2018-01-08T01:38:56.160Z,2.33
2018-01-08T01:41:58.039Z,2.60
2018-01-08T01:44:59.912Z,2.40
2018-01-08T01:48:01.804Z,2.40
2018-01-08T01:51:03.721Z,2.10
2018-01-08T01:54:05.603Z,2.60
2018-01-08T01:57:07.467Z,2.70
2018-01-08T02:00:09.347Z,2.40
2018-01-08T02:03:11.222Z,1.97
2018-01-08T02:06:13.069Z,2.50
2018-01-08T02:09:14.955Z,2.77
2018-01-08T02:12:16.825Z,2.40
2018-01-08T02:15:18.698Z,2.40
2018-01-08T02:18:20.598Z,2.50
2018-01-08T02:21:22.478Z,2.60
2018-01-08T02:24:24.335Z,2.60
2018-01-08T02:27:26.206Z,2.40
2018-01-08T02:30:28.061Z,2.57
2018-01-08T02:33:29.940Z,2.40
2018-01-08T02:36:31.803Z,2.70
2018-01-08T02:39:33.703Z,2.77
2018-01-08T02:42:35.569Z,2.60
2018-01-08T02:45:37.467Z,2.50
2018-01-08T02:48:39.359Z,2.70
2018-01-08T02:51:41.242Z,2.47
2018-01-08T02:54:43.127Z,2.70
2018-01-08T02:57:45.070Z,2.90
2018-01-08T03:00:46.951Z,2.83
2018-01-08T03:03:48.839Z,2.80
2018-01-08T03:06:50.715Z,2.77
2018-01-08T03:09:52.566Z,2.30
2018-01-08T03:12:54.451Z,2.60
2018-01-08T03:15:56.312Z,2.97
2018-01-08T03:18:58.191Z,2.80
2018-01-08T03:22:00.069Z,2.90
2018-01-08T03:25:02.258Z,2.80
2018-01-08T03:28:04.131Z,2.90
2018-01-08T03:31:06.025Z,2.73
2018-01-08T03:34:07.883Z,2.50
2018-01-08T03:37:09.768Z,2.70
2018-01-08T03:40:11.616Z,2.83
2018-01-08T03:43:13.498Z,2.60
2018-01-08T03:46:15.403Z,2.90
2018-01-08T03:49:17.280Z,2.80
2018-01-08T03:52:19.151Z,2.70
2018-01-08T03:55:21.026Z,2.50
2018-01-08T03:58:22.880Z,2.83
2018-01-08T04:01:24.778Z,2.57
2018-01-08T04:04:26.652Z,2.90
2018-01-08T04:07:28.547Z,3.07
2018-01-08T04:10:30.413Z,2.73
2018-01-08T04:13:32.299Z,3.20
2018-01-08T04:16:34.159Z,2.77
2018-01-08T04:19:36.023Z,3.07
2018-01-08T04:22:37.887Z,3.03
2018-01-08T04:25:39.763Z,2.90
2018-01-08T04:28:41.631Z,3.00
2018-01-08T04:31:43.503Z,2.90
2018-01-08T04:34:45.399Z,2.93
2018-01-08T04:37:47.256Z,3.10
2018-01-08T04:40:49.143Z,3.10
2018-01-08T04:43:51.002Z,3.10
2018-01-08T04:46:52.880Z,2.60
2018-01-08T04:49:54.740Z,2.90
2018-01-08T04:52:56.636Z,3.00
2018-01-08T04:55:58.484Z,3.47
2018-01-08T04:59:00.359Z,3.20
2018-01-08T05:02:02.224Z,3.13
2018-01-08T05:05:04.106Z,3.20
2018-01-08T05:08:05.971Z,2.80
2018-01-08T05:11:07.868Z,2.80
2018-01-08T05:14:09.756Z,2.83
2018-01-08T05:17:11.646Z,2.87
2018-01-08T05:20:13.534Z,2.90
2018-01-08T05:23:15.394Z,2.90
2018-01-08T05:26:17.284Z,2.90
2018-01-08T05:29:19.151Z,3.10
2018-01-08T05:32:21.019Z,3.20
2018-01-08T05:35:22.884Z,2.77
2018-01-08T05:38:24.774Z,2.80
2018-01-08T05:41:26.667Z,2.87
2018-01-08T05:44:28.575Z,3.23
2018-01-08T05:47:30.466Z,2.93
2018-01-08T05:50:32.354Z,3.20
2018-01-08T05:53:34.932Z,2.77
2018-01-08T05:56:36.797Z,3.17
2018-01-08T05:59:38.695Z,3.20
2018-01-08T06:02:40.587Z,2.80
2018-01-08T06:05:42.471Z,2.80
2018-01-08T06:08:44.326Z,2.73
2018-01-08T06:11:46.215Z,2.73
2018-01-08T06:14:48.104Z,3.00
2018-01-08T06:17:50.003Z,2.83
2018-01-08T06:20:51.871Z,3.10
2018-01-08T06:23:53.748Z,2.90
2018-01-08T06:26:55.611Z,2.77
2018-01-08T06:29:57.487Z,2.80
2018-01-08T06:32:59.372Z,2.73
2018-01-08T06:36:01.224Z,2.80
2018-01-08T06:39:03.139Z,2.87
2018-01-08T06:42:05.017Z,3.10
2018-01-08T06:45:06.900Z,2.87
2018-01-08T06:48:08.775Z,3.20
2018-01-08T06:51:10.668Z,2.57
2018-01-08T06:54:12.637Z,2.87
2018-01-08T06:57:14.573Z,2.97
2018-01-08T07:00:16.411Z,2.90
2018-01-08T07:03:18.418Z,3.00
2018-01-08T07:06:20.270Z,2.90
2018-01-08T07:09:22.159Z,3.40
2018-01-08T07:12:24.016Z,2.97
2018-01-08T07:15:25.912Z,3.00
2018-01-08T07:18:27.792Z,3.13
2018-01-08T07:21:29.675Z,3.07
2018-01-08T07:24:31.571Z,3.00
2018-01-08T07:27:33.567Z,3.10
2018-01-08T07:30:36.090Z,2.90
2018-01-08T07:33:38.123Z,2.70
2018-01-08T07:36:40.027Z,3.20
2018-01-08T07:39:41.879Z,2.90
2018-01-08T07:42:43.776Z,2.97
2018-01-08T07:45:45.659Z,2.90
2018-01-08T07:48:47.518Z,3.50
2018-01-08T07:51:49.396Z,5.57
2018-01-08T07:54:51.300Z,9.23
2018-01-08T07:57:53.171Z,9.87
2018-01-08T08:00:55.056Z,8.93
2018-01-08T08:03:56.941Z,8.93
2018-01-08T08:06:58.802Z,7.97
2018-01-08T08:10:00.704Z,7.67
2018-01-08T08:13:02.588Z,7.50
2018-01-08T08:16:04.660Z,7.50
2018-01-08T08:19:06.518Z,7.07
2018-01-08T08:22:08.459Z,7.40
2018-01-08T08:25:10.328Z,6.77
2018-01-08T08:28:12.206Z,7.33
2018-01-08T08:31:14.115Z,6.53
2018-01-08T08:34:16.003Z,6.40
2018-01-08T08:37:17.865Z,7.10
2018-01-08T08:40:19.760Z,6.97
2018-01-08T08:43:21.620Z,7.40
2018-01-08T08:46:23.544Z,6.40
2018-01-08T08:49:25.359Z,6.77
2018-01-08T08:52:27.235Z,6.10
2018-01-08T08:55:29.100Z,6.77
2018-01-08T08:58:30.994Z,6.57
2018-01-08T09:01:32.871Z,6.67
2018-01-08T09:04:35.009Z,6.43
2018-01-08T09:07:36.932Z,6.77
2018-01-08T09:10:38.751Z,6.43
2018-01-08T09:13:40.606Z,7.17
2018-01-08T09:16:42.526Z,6.53
2018-01-08T09:19:44.344Z,5.80
2018-01-08T09:22:46.238Z,5.93
2018-01-08T09:25:48.108Z,5.50
2018-01-08T09:28:49.983Z,5.83
2018-01-08T09:31:51.944Z,6.30
2018-01-08T09:34:53.974Z,6.17
2018-01-08T09:37:55.831Z,5.97
2018-01-08T09:40:57.714Z,5.77
2018-01-08T09:43:59.604Z,5.70
2018-01-08T09:47:01.496Z,5.60
2018-01-08T09:50:03.355Z,5.80
2018-01-08T09:53:05.236Z,6.07
2018-01-08T09:56:07.123Z,6.03
2018-01-08T09:59:09.275Z,5.67
2018-01-08T10:02:11.138Z,6.00
2018-01-08T10:05:13.032Z,5.93
2018-01-08T10:08:14.886Z,5.73
2018-01-08T10:11:16.819Z,5.70
2018-01-08T10:14:18.679Z,5.73
2018-01-08T10:17:20.579Z,5.67
2018-01-08T10:20:22.496Z,6.10
2018-01-08T10:23:24.376Z,5.37
2018-01-08T10:26:26.270Z,6.07
2018-01-08T10:29:28.171Z,5.50
2018-01-08T10:32:30.032Z,5.93
2018-01-08T10:35:31.911Z,6.00
2018-01-08T10:38:33.759Z,5.70
2018-01-08T10:41:41.016Z,5.70
2018-01-08T10:44:48.283Z,4.97
2018-01-08T10:47:55.604Z,5.50
2018-01-08T10:51:02.968Z,5.60
2018-01-08T10:54:04.872Z,5.33
2018-01-08T10:57:06.771Z,5.63
2018-01-08T11:00:08.640Z,6.30
2018-01-08T11:04:18.770Z,5.50
2018-01-08T11:07:20.671Z,5.63
2018-01-08T11:10:22.551Z,6.07
2018-01-08T11:13:24.455Z,5.33
2018-01-08T11:16:26.328Z,5.50
2018-01-08T11:19:28.258Z,5.80
2018-01-08T11:22:30.227Z,5.40
2018-01-08T11:25:32.083Z,4.70
2018-01-08T11:28:33.976Z,5.30
2018-01-08T11:31:35.827Z,5.43
2018-01-08T11:34:37.987Z,4.77
2018-01-08T11:37:39.816Z,4.83
2018-01-08T11:40:41.703Z,5.17
2018-01-08T11:43:43.572Z,5.13
2018-01-08T11:46:45.465Z,5.37
2018-01-08T11:49:47.380Z,5.13
2018-01-08T11:52:49.303Z,4.87
2018-01-08T11:55:51.161Z,4.47
2018-01-08T11:58:53.075Z,5.07
2018-01-08T12:01:54.944Z,5.00
2018-01-08T12:04:56.849Z,5.20
2018-01-08T12:07:58.718Z,6.40
2018-01-08T12:11:00.632Z,5.70
2018-01-08T12:14:02.503Z,5.27
2018-01-08T12:17:04.393Z,5.43
2018-01-08T12:20:06.280Z,4.80
2018-01-08T12:23:08.218Z,5.30
2018-01-08T12:26:10.036Z,5.27
2018-01-08T12:29:11.923Z,5.23
2018-01-08T12:32:13.783Z,5.07
2018-01-08T12:35:15.673Z,5.43
2018-01-08T12:38:17.568Z,5.27
2018-01-08T12:41:19.407Z,5.20
2018-01-08T12:44:21.263Z,5.10
2018-01-08T12:47:23.159Z,5.00
2018-01-08T12:50:25.018Z,4.70
2018-01-08T12:53:26.895Z,5.07
2018-01-08T12:56:28.794Z,4.87
2018-01-08T12:59:30.687Z,5.13
2018-01-08T13:02:32.583Z,4.63
2018-01-08T13:05:34.447Z,6.23
2018-01-08T13:08:36.335Z,6.10
2018-01-08T13:11:38.213Z,5.83
2018-01-08T13:14:40.924Z,5.70
2018-01-08T13:17:42.799Z,5.20
2018-01-08T13:20:44.688Z,5.10
2018-01-08T13:23:46.552Z,5.33
2018-01-08T13:26:48.449Z,5.07
2018-01-08T13:29:50.331Z,4.90
2018-01-08T13:32:52.231Z,4.83
2018-01-08T13:35:54.092Z,4.93
2018-01-08T13:38:55.975Z,4.90
2018-01-08T13:41:57.872Z,4.67
2018-01-08T13:44:59.824Z,4.87
2018-01-08T13:48:01.707Z,5.10
2018-01-08T13:51:03.575Z,5.13
2018-01-08T13:54:05.470Z,5.20
2018-01-08T13:57:07.352Z,5.10
2018-01-08T14:00:09.220Z,4.37
2018-01-08T14:03:11.239Z,5.20
2018-01-08T14:06:13.231Z,4.50
2018-01-08T14:09:15.100Z,4.70
2018-01-08T14:12:16.990Z,4.13
2018-01-08T14:15:18.880Z,5.20
2018-01-08T14:18:20.736Z,4.90
2018-01-08T14:21:22.623Z,4.50
2018-01-08T14:24:24.502Z,4.40
2018-01-08T14:27:26.546Z,4.40
2018-01-08T14:30:28.359Z,4.40
2018-01-08T14:33:30.243Z,4.37
2018-01-08T14:36:32.116Z,4.37
2018-01-08T14:39:33.997Z,5.03
2018-01-08T14:42:35.859Z,4.83
2018-01-08T14:45:37.755Z,4.17
2018-01-08T14:48:39.628Z,4.60
2018-01-08T14:51:41.553Z,4.47
2018-01-08T14:54:43.365Z,4.03
2018-01-08T14:57:45.451Z,4.03
2018-01-08T15:00:47.359Z,4.43
2018-01-08T15:03:49.210Z,4.10
2018-01-08T15:06:51.102Z,4.10
2018-01-08T15:09:52.964Z,4.50
2018-01-08T15:12:54.860Z,3.80
2018-01-08T15:15:56.743Z,4.30
2018-01-08T15:18:58.634Z,4.20
2018-01-08T15:22:00.496Z,4.57
2018-01-08T15:25:02.392Z,4.00
2018-01-08T15:28:04.287Z,3.80
2018-01-08T15:31:06.156Z,4.27
2018-01-08T15:34:08.035Z,3.90
2018-01-08T15:37:09.892Z,4.30
2018-01-08T15:40:11.794Z,3.90
2018-01-08T15:43:13.670Z,4.17
2018-01-08T15:46:15.551Z,4.10
2018-01-08T15:49:17.427Z,4.33
2018-01-08T15:52:19.300Z,4.00
2018-01-08T15:55:21.262Z,4.30
2018-01-08T15:58:23.124Z,4.33
2018-01-08T16:01:25.016Z,3.97
2018-01-08T16:04:26.911Z,3.90
2018-01-08T16:07:28.763Z,3.87
2018-01-08T16:10:30.660Z,3.60
2018-01-08T16:13:32.526Z,3.80
2018-01-08T16:16:34.547Z,3.80
2018-01-08T16:19:36.427Z,3.50
2018-01-08T16:22:38.347Z,3.37
2018-01-08T16:25:40.235Z,3.67
2018-01-08T16:28:42.108Z,3.60
2018-01-08T16:31:44.037Z,3.80
2018-01-08T16:34:45.934Z,3.97
2018-01-08T16:37:48.040Z,3.80
2018-01-08T16:40:49.895Z,3.80
2018-01-08T16:43:51.791Z,3.73
2018-01-08T16:46:53.668Z,4.13
2018-01-08T16:49:55.559Z,4.00
2018-01-08T16:52:57.407Z,4.00
2018-01-08T16:55:59.336Z,3.80
2018-01-08T16:59:01.204Z,4.10
2018-01-08T17:02:03.120Z,3.60
2018-01-08T17:05:04.999Z,4.10
2018-01-08T17:08:06.893Z,3.97
2018-01-08T17:11:08.764Z,3.70
2018-01-08T17:14:10.639Z,3.80
2018-01-08T17:17:12.687Z,3.80
2018-01-08T17:20:14.556Z,3.83
2018-01-08T17:23:16.437Z,4.23
2018-01-08T17:26:18.818Z,4.00
2018-01-08T17:29:20.708Z,3.90
2018-01-08T17:32:23.472Z,4.30
2018-01-08T17:35:25.327Z,4.10
2018-01-08T17:38:27.228Z,4.07
2018-01-08T17:41:29.119Z,3.83
2018-01-08T17:44:31.107Z,3.77
2018-01-08T17:47:33.039Z,4.23
2018-01-08T17:50:34.904Z,4.00
2018-01-08T17:53:36.813Z,4.10
2018-01-08T17:56:38.712Z,4.00
2018-01-08T17:59:40.660Z,3.70
2018-01-08T18:02:42.540Z,4.07
2018-01-08T18:05:44.439Z,3.90
2018-01-08T18:08:46.378Z,3.63
2018-01-08T18:11:48.375Z,3.63
2018-01-08T18:14:50.292Z,4.00
2018-01-08T18:17:52.158Z,4.00
2018-01-08T18:20:54.296Z,3.80
2018-01-08T18:23:56.155Z,3.80
2018-01-08T18:26:58.052Z,3.67
2018-01-08T18:29:59.915Z,4.03
2018-01-08T18:33:01.812Z,4.40
2018-01-08T18:36:03.678Z,4.50
2018-01-08T18:39:05.601Z,4.27
2018-01-08T18:42:07.470Z,4.20
2018-01-08T18:45:09.375Z,4.00
2018-01-08T18:48:11.241Z,4.27
2018-01-08T18:51:13.188Z,3.70
2018-01-08T18:54:15.048Z,3.67
2018-01-08T18:57:16.943Z,4.07
2018-01-08T19:00:18.880Z,3.60
2018-01-08T19:03:20.771Z,3.60
2018-01-08T19:06:22.732Z,3.23
2018-01-08T19:09:24.761Z,3.80
2018-01-08T19:12:26.670Z,3.97
2018-01-08T19:15:28.710Z,3.80
2018-01-08T19:18:30.578Z,3.33
2018-01-08T19:21:32.491Z,3.70
2018-01-08T19:24:34.360Z,3.53
2018-01-08T19:27:36.240Z,3.87
2018-01-08T19:30:38.131Z,3.57
2018-01-08T19:33:40.037Z,3.37
2018-01-08T19:36:41.930Z,3.50
2018-01-08T19:39:43.807Z,3.57
2018-01-08T19:42:45.747Z,3.70
2018-01-08T19:45:47.639Z,3.60
2018-01-08T19:48:49.513Z,3.70
2018-01-08T19:51:51.516Z,3.77
2018-01-08T19:54:53.455Z,3.47
2018-01-08T19:57:55.423Z,3.57
2018-01-08T20:00:57.343Z,3.70
2018-01-08T20:03:59.225Z,3.60
2018-01-08T20:07:01.107Z,3.80
2018-01-08T20:10:03.164Z,3.50
2018-01-08T20:13:05.047Z,3.70
2018-01-08T20:16:06.942Z,3.77
2018-01-08T20:19:08.827Z,3.70
2018-01-08T20:22:10.773Z,4.23
2018-01-08T20:25:12.659Z,3.47
2018-01-08T20:28:14.908Z,3.97
2018-01-08T20:31:16.747Z,3.70
2018-01-08T20:34:18.659Z,3.90
2018-01-08T20:37:20.752Z,3.93
2018-01-08T20:40:22.620Z,3.57
2018-01-08T20:43:24.536Z,3.57
2018-01-08T20:46:26.451Z,3.80
2018-01-08T20:49:28.342Z,3.33
2018-01-08T20:52:30.243Z,3.40
2018-01-08T20:55:32.474Z,3.50
2018-01-08T20:58:34.353Z,3.70
2018-01-08T21:01:36.236Z,3.37
2018-01-08T21:04:38.107Z,3.60
2018-01-08T21:07:40.000Z,3.47
2018-01-08T21:10:41.855Z,3.40
2018-01-08T21:13:43.823Z,3.70
2018-01-08T21:16:45.759Z,3.60
2018-01-08T21:19:47.723Z,3.50
2018-01-08T21:22:49.631Z,3.20
2018-01-08T21:25:51.495Z,3.57
2018-01-08T21:28:53.371Z,3.50
2018-01-08T21:31:55.223Z,3.60
2018-01-08T21:34:57.127Z,3.90
2018-01-08T21:37:58.990Z,3.40
2018-01-08T21:41:01.232Z,3.10
2018-01-08T21:44:03.124Z,3.37
2018-01-08T21:47:05.247Z,3.70
2018-01-08T21:50:07.135Z,3.47
2018-01-08T21:53:09.020Z,3.60
2018-01-08T21:56:10.907Z,3.40
2018-01-08T21:59:12.824Z,3.60
2018-01-08T22:02:14.747Z,3.57
2018-01-08T22:05:16.636Z,3.80
2018-01-08T22:08:18.517Z,3.27
2018-01-08T22:11:20.375Z,3.60
2018-01-08T22:14:22.263Z,3.47
2018-01-08T22:17:24.124Z,3.47
2018-01-08T22:20:26.004Z,3.50
2018-01-08T22:23:27.903Z,3.30
2018-01-08T22:26:29.760Z,3.10
2018-01-08T22:29:31.632Z,3.63
2018-01-08T22:32:33.536Z,3.40
2018-01-08T22:35:35.406Z,2.90
2018-01-08T22:38:37.608Z,3.23
2018-01-08T22:41:39.462Z,3.30
2018-01-08T22:44:41.352Z,3.20
2018-01-08T22:47:43.220Z,3.37
2018-01-08T22:50:45.103Z,2.87
2018-01-08T22:53:47.003Z,3.30
2018-01-08T22:56:48.892Z,3.30
2018-01-08T22:59:50.743Z,3.30
2018-01-08T23:02:52.643Z,3.77
2018-01-08T23:05:54.503Z,3.57
2018-01-08T23:08:56.463Z,3.67
2018-01-08T23:11:58.355Z,3.10
2018-01-08T23:15:00.240Z,2.97
2018-01-08T23:18:02.114Z,3.13
2018-01-08T23:21:03.992Z,3.20
2018-01-08T23:24:05.893Z,3.20
2018-01-08T23:27:07.760Z,3.13
2018-01-08T23:30:09.643Z,3.27
2018-01-08T23:33:11.508Z,3.00
2018-01-08T23:36:13.400Z,3.10
2018-01-08T23:39:15.262Z,3.13
2018-01-08T23:42:17.156Z,3.33
2018-01-08T23:45:19.240Z,3.47
2018-01-08T23:48:21.156Z,3.17
2018-01-08T23:51:23.031Z,3.30
2018-01-08T23:54:25.238Z,3.67
2018-01-08T23:57:27.105Z,3.50
